Аэропорт: Габала. Габала

ICAO: UBBQ

METAR:
2019/05/25 20:00
UBBQ 252000Z 24006KT 9999 SCT039 18/17 Q1012 R34/////// NOSIG RMK MT OP
METAR:
Информация по данной станции не доступна